Time;durP1;ratioP1;P1;durP2;ratioP2;P2;SDS_P1;SDS_P2;PMS_P1;PMS_P2;Temp;Humidity;BMP_temperature;BMP_pressure;BME280_temperature;BME280_humidity;BME280_pressure;Samples;Min_cycle;Max_cycle;Signal;HPM_P1;HPM_P2
2023/06/12 00:00:47;;;;;;;5.72;2.10;;;18.20;98.00;;;;;;5115265;28;20483;-89
2023/06/12 00:03:14;;;;;;;16.30;2.40;;;18.20;97.80;;;;;;5115192;28;20100;-88
2023/06/12 00:05:43;;;;;;;5.25;2.00;;;18.10;97.90;;;;;;5098981;28;20044;-88
2023/06/12 00:08:22;;;;;;;7.43;2.50;;;18.10;98.00;;;;;;5120318;27;20043;-89
2023/06/12 00:10:49;;;;;;;13.23;2.33;;;18.10;98.00;;;;;;5120045;27;20500;-88
2023/06/12 00:13:16;;;;;;;3.83;1.95;;;18.10;98.20;;;;;;5116131;27;20150;-89
2023/06/12 00:15:42;;;;;;;5.57;2.08;;;18.00;98.40;;;;;;5081858;28;20043;-89
2023/06/12 00:18:11;;;;;;;6.03;2.25;;;17.90;98.50;;;;;;5098203;28;20510;-88
2023/06/12 00:20:38;;;;;;;7.20;2.38;;;17.80;98.60;;;;;;5082683;28;20051;-88
2023/06/12 00:23:10;;;;;;;4.13;2.30;;;17.80;98.60;;;;;;5120808;27;20122;-88
2023/06/12 00:25:37;;;;;;;6.38;2.40;;;17.70;98.70;;;;;;5136567;27;20088;-88
2023/06/12 00:28:04;;;;;;;11.15;2.28;;;17.80;98.80;;;;;;5134362;27;20543;-88
2023/06/12 00:30:30;;;;;;;7.05;2.13;;;17.80;98.90;;;;;;5118640;27;20125;-88
2023/06/12 00:32:57;;;;;;;8.23;2.22;;;17.70;99.00;;;;;;5118361;27;20050;-89
2023/06/12 00:35:24;;;;;;;4.28;2.10;;;17.60;99.20;;;;;;5089249;28;20031;-88
2023/06/12 00:37:51;;;;;;;6.35;2.38;;;17.60;99.20;;;;;;5115075;28;20050;-88
2023/06/12 00:40:17;;;;;;;4.45;2.25;;;17.60;99.30;;;;;;5081141;28;20488;-88
2023/06/12 00:42:49;;;;;;;7.78;2.85;;;17.50;99.50;;;;;;5086672;27;20491;-88
2023/06/12 00:45:18;;;;;;;4.45;2.10;;;17.50;99.90;;;;;;5118167;27;20398;-88
2023/06/12 00:47:57;;;;;;;6.68;3.25;;;17.40;99.80;;;;;;5134967;27;20047;-88
2023/06/12 00:50:27;;;;;;;6.32;2.40;;;17.40;99.90;;;;;;5151684;27;20043;-88
2023/06/12 00:52:56;;;;;;;11.82;2.63;;;17.40;99.90;;;;;;5116602;27;20035;-88
2023/06/12 00:55:23;;;;;;;4.88;2.38;;;17.40;99.90;;;;;;5135300;27;20078;-89
2023/06/12 00:57:51;;;;;;;5.70;2.65;;;17.30;99.90;;;;;;5118487;27;20048;-88
2023/06/12 01:00:19;;;;;;;6.68;2.50;;;17.30;99.90;;;;;;5135251;27;20047;-88
2023/06/12 01:02:50;;;;;;;5.70;2.33;;;17.20;99.90;;;;;;5118097;27;20045;-88
2023/06/12 01:05:28;;;;;;;5.45;2.15;;;17.20;99.90;;;;;;5134295;27;20039;-89
2023/06/12 01:08:15;;;;;;;5.65;2.40;;;17.20;99.90;;;;;;5134564;27;20039;-88
2023/06/12 01:10:46;;;;;;;7.50;2.40;;;17.10;99.90;;;;;;5134669;27;20525;-89
2023/06/12 01:13:16;;;;;;;6.45;2.30;;;17.10;99.90;;;;;;5134300;27;20031;-88
2023/06/12 01:15:43;;;;;;;7.22;2.40;;;17.10;99.90;;;;;;5134597;27;20033;-88
2023/06/12 01:18:10;;;;;;;6.45;2.78;;;17.00;99.90;;;;;;5117318;27;20419;-88
2023/06/12 01:20:38;;;;;;;7.82;3.22;;;17.10;99.90;;;;;;5117787;27;20039;-88
2023/06/12 01:23:29;;;;;;;7.85;2.80;;;17.00;99.90;;;;;;5134984;27;20046;-88
2023/06/12 01:26:08;;;;;;;9.95;2.70;;;17.00;99.90;;;;;;5134364;27;20039;-88
2023/06/12 01:28:57;;;;;;;5.00;2.35;;;16.90;99.90;;;;;;5151441;27;20061;-88
2023/06/12 01:31:56;;;;;;;6.63;2.58;;;16.90;99.90;;;;;;5085374;27;20050;-88
2023/06/12 01:34:35;;;;;;;6.28;2.80;;;16.90;99.90;;;;;;5134267;27;20372;-88
2023/06/12 01:37:20;;;;;;;7.80;2.35;;;16.90;99.90;;;;;;5134838;28;20126;-87
2023/06/12 01:39:58;;;;;;;6.28;2.60;;;16.90;99.90;;;;;;5134450;27;20484;-88
2023/06/12 01:42:29;;;;;;;6.65;2.70;;;16.80;99.90;;;;;;5134389;28;20376;-89
2023/06/12 01:44:56;;;;;;;6.10;2.30;;;16.70;99.90;;;;;;5134411;27;20074;-88
2023/06/12 01:47:23;;;;;;;4.63;2.40;;;16.80;99.90;;;;;;5116927;28;20079;-88
2023/06/12 01:49:51;;;;;;;6.22;2.40;;;16.70;99.90;;;;;;5118256;27;20457;-89
2023/06/12 01:52:18;;;;;;;8.00;2.40;;;16.70;99.90;;;;;;5100353;28;20043;-88
2023/06/12 01:54:47;;;;;;;5.82;2.42;;;16.60;99.90;;;;;;5117599;28;20046;-88
2023/06/12 01:57:15;;;;;;;5.95;2.75;;;16.60;99.90;;;;;;5101475;28;20078;-86
2023/06/12 01:59:43;;;;;;;6.28;2.55;;;16.50;99.90;;;;;;5100946;28;20043;-89
2023/06/12 02:02:09;;;;;;;6.53;2.60;;;16.50;99.90;;;;;;5100782;28;20724;-89
2023/06/12 02:04:36;;;;;;;8.27;2.65;;;16.40;99.90;;;;;;5100915;28;20129;-89
2023/06/12 02:07:04;;;;;;;10.35;2.47;;;16.40;99.90;;;;;;5117289;28;20127;-89
2023/06/12 02:09:31;;;;;;;4.80;2.70;;;16.40;99.90;;;;;;5117549;28;20126;-89
2023/06/12 02:12:00;;;;;;;5.50;2.90;;;16.30;99.90;;;;;;5100565;28;20070;-89
2023/06/12 02:14:27;;;;;;;8.30;3.00;;;16.30;99.90;;;;;;5117242;28;20035;-88
2023/06/12 02:16:54;;;;;;;8.60;3.15;;;16.30;99.90;;;;;;5117393;28;20043;-88
2023/06/12 02:19:25;;;;;;;5.97;2.67;;;16.30;99.90;;;;;;5100361;28;20847;-88
2023/06/12 02:21:53;;;;;;;7.50;2.80;;;16.20;99.90;;;;;;5106072;28;20032;-88
2023/06/12 02:24:30;;;;;;;11.43;2.88;;;16.10;99.90;;;;;;5130513;28;20156;-88
2023/06/12 02:26:57;;;;;;;9.23;3.70;;;16.10;99.90;;;;;;5113680;28;20051;-89
2023/06/12 02:29:24;;;;;;;6.85;2.83;;;16.10;99.90;;;;;;5080086;28;20122;-88
2023/06/12 02:31:51;;;;;;;7.72;3.10;;;16.10;99.90;;;;;;5096737;28;20042;-89
2023/06/12 02:34:17;;;;;;;6.07;2.80;;;16.10;99.90;;;;;;5113649;28;20126;-89
2023/06/12 02:36:46;;;;;;;5.88;2.85;;;16.00;99.90;;;;;;5113370;28;20047;-89
2023/06/12 02:39:14;;;;;;;6.15;3.05;;;16.00;99.90;;;;;;5096858;28;20131;-88
2023/06/12 02:41:42;;;;;;;7.50;3.25;;;16.00;99.90;;;;;;5096736;28;20557;-89
2023/06/12 02:44:09;;;;;;;8.90;2.88;;;15.90;99.90;;;;;;5096978;28;20130;-88
2023/06/12 02:46:53;;;;;;;6.70;2.70;;;15.90;99.90;;;;;;5079490;28;20122;-89
2023/06/12 02:49:21;;;;;;;6.70;3.00;;;15.90;99.90;;;;;;5129933;28;20040;-89
2023/06/12 02:51:48;;;;;;;9.75;3.22;;;15.90;99.90;;;;;;5101798;27;20040;-89
2023/06/12 02:54:16;;;;;;;7.63;3.17;;;15.80;99.90;;;;;;5120085;27;20038;-86
2023/06/12 02:56:46;;;;;;;8.00;3.33;;;15.80;99.90;;;;;;5103731;27;20037;-89
2023/06/12 02:59:16;;;;;;;6.20;3.00;;;15.70;99.90;;;;;;5121083;27;20122;-88
2023/06/12 03:01:43;;;;;;;6.03;2.97;;;15.60;99.90;;;;;;5136874;27;20479;-89
2023/06/12 03:04:20;;;;;;;6.80;3.08;;;15.60;99.90;;;;;;5137485;27;20042;-89
2023/06/12 03:06:54;;;;;;;7.55;2.90;;;15.50;99.90;;;;;;5137135;27;20043;-89
2023/06/12 03:09:21;;;;;;;9.63;3.25;;;15.50;99.90;;;;;;5134280;27;20055;-89
2023/06/12 03:11:53;;;;;;;6.57;3.22;;;15.50;99.90;;;;;;5100127;28;20064;-89
2023/06/12 03:14:21;;;;;;;9.85;3.05;;;15.40;99.90;;;;;;5116773;28;20506;-89
2023/06/12 03:16:48;;;;;;;6.40;2.95;;;15.40;99.90;;;;;;5116375;28;20115;-89
2023/06/12 03:19:15;;;;;;;9.57;3.38;;;15.40;99.90;;;;;;5083496;28;20103;-89
2023/06/12 03:21:41;;;;;;;7.10;3.20;;;15.30;99.90;;;;;;5100762;27;20125;-89
2023/06/12 03:24:08;;;;;;;5.20;2.70;;;15.30;99.90;;;;;;5118915;28;20048;-89
2023/06/12 03:26:35;;;;;;;5.00;3.03;;;15.20;99.90;;;;;;5084397;27;20043;-90
2023/06/12 03:29:02;;;;;;;6.28;3.10;;;15.20;99.90;;;;;;5103133;27;20072;-89
2023/06/12 03:31:29;;;;;;;6.20;2.92;;;15.20;99.90;;;;;;5115932;28;20118;-89
2023/06/12 03:33:56;;;;;;;6.80;3.05;;;15.00;99.90;;;;;;5116686;28;20070;-89
2023/06/12 03:36:25;;;;;;;7.75;3.33;;;15.10;99.90;;;;;;5116529;28;20035;-89
2023/06/12 03:38:52;;;;;;;6.15;2.95;;;15.10;99.90;;;;;;5131143;28;20075;-88
2023/06/12 03:41:21;;;;;;;6.97;3.25;;;15.10;99.90;;;;;;5109780;27;20043;-89
2023/06/12 03:43:48;;;;;;;6.13;2.90;;;15.00;99.90;;;;;;5119480;27;20062;-90
2023/06/12 03:46:15;;;;;;;6.07;2.80;;;15.00;99.90;;;;;;5119242;27;20039;-90
2023/06/12 03:48:42;;;;;;;9.57;3.15;;;15.00;99.90;;;;;;5108610;28;20047;-89
2023/06/12 03:51:08;;;;;;;6.53;2.92;;;15.00;99.90;;;;;;5080812;28;20040;-89
2023/06/12 03:53:39;;;;;;;8.70;2.95;;;15.00;99.90;;;;;;5128997;28;20032;-89
2023/06/12 03:56:06;;;;;;;10.25;3.22;;;14.90;99.90;;;;;;5146350;28;20083;-90
2023/06/12 03:58:33;;;;;;;13.93;3.17;;;15.00;99.90;;;;;;5128855;28;20126;-89
2023/06/12 04:01:00;;;;;;;7.45;3.08;;;15.00;99.90;;;;;;5145808;28;20079;-89
2023/06/12 04:03:27;;;;;;;7.65;3.05;;;15.00;99.90;;;;;;5112357;28;20558;-89
2023/06/12 04:05:53;;;;;;;6.80;3.30;;;15.00;99.90;;;;;;5078878;28;20075;-89
2023/06/12 04:08:22;;;;;;;5.75;3.17;;;14.80;99.90;;;;;;5078746;28;20040;-89
2023/06/12 04:10:50;;;;;;;8.93;3.75;;;15.00;99.90;;;;;;5111836;28;20040;-89
2023/06/12 04:13:16;;;;;;;8.18;3.15;;;15.00;99.90;;;;;;5078918;28;20503;-90
2023/06/12 04:15:43;;;;;;;10.75;3.60;;;15.00;99.90;;;;;;5095109;28;20044;-89
2023/06/12 04:18:10;;;;;;;8.57;3.33;;;15.00;99.90;;;;;;5095551;28;20032;-90
2023/06/12 04:20:38;;;;;;;9.15;3.30;;;15.00;99.90;;;;;;5078272;28;20040;-89
2023/06/12 04:23:11;;;;;;;16.50;3.65;;;15.00;99.90;;;;;;5079016;28;20040;-89
2023/06/12 04:25:38;;;;;;;6.70;3.33;;;15.00;99.90;;;;;;5129090;28;20222;-89
2023/06/12 04:28:08;;;;;;;6.72;3.28;;;15.00;99.90;;;;;;5128768;28;20040;-89
2023/06/12 04:30:35;;;;;;;5.88;3.28;;;15.00;99.90;;;;;;5145402;28;20036;-90
2023/06/12 04:33:03;;;;;;;9.80;3.50;;;15.00;99.90;;;;;;5123348;28;20040;-89
2023/06/12 04:35:33;;;;;;;8.60;3.20;;;15.00;99.90;;;;;;5078563;28;20036;-89
2023/06/12 04:38:00;;;;;;;5.57;3.25;;;15.00;99.90;;;;;;5078707;28;20036;-90
2023/06/12 04:40:26;;;;;;;9.20;3.97;;;15.00;99.90;;;;;;5078529;28;20036;-89
2023/06/12 04:42:56;;;;;;;8.02;3.60;;;15.10;99.90;;;;;;5094658;28;20039;-90
2023/06/12 04:45:23;;;;;;;9.23;3.63;;;15.10;99.90;;;;;;5095166;28;20039;-88
2023/06/12 04:47:51;;;;;;;12.93;3.60;;;15.20;99.90;;;;;;5136266;28;20056;-89
2023/06/12 04:50:18;;;;;;;6.70;3.38;;;15.20;99.90;;;;;;5115315;28;20039;-89
2023/06/12 04:52:47;;;;;;;7.13;3.33;;;15.20;99.90;;;;;;5131275;28;20176;-89
2023/06/12 04:55:20;;;;;;;8.05;3.88;;;15.20;99.90;;;;;;5134575;27;20039;-89
2023/06/12 04:57:52;;;;;;;8.48;3.58;;;15.30;99.90;;;;;;5106569;28;20407;-89
2023/06/12 05:00:22;;;;;;;8.32;3.95;;;15.30;99.90;;;;;;5098581;28;20043;-89
2023/06/12 05:02:53;;;;;;;6.75;3.45;;;15.30;99.90;;;;;;5097485;28;20170;-89
2023/06/12 05:05:19;;;;;;;9.43;3.53;;;15.30;99.90;;;;;;5115613;27;20131;-89
2023/06/12 05:07:47;;;;;;;9.05;3.75;;;15.40;99.90;;;;;;5119314;28;20511;-89
2023/06/12 05:10:17;;;;;;;6.72;3.65;;;15.40;99.90;;;;;;5115606;27;20069;-89
2023/06/12 05:12:43;;;;;;;7.15;3.63;;;15.40;99.90;;;;;;5100170;27;20517;-88
2023/06/12 05:15:10;;;;;;;6.80;3.50;;;15.50;99.90;;;;;;5134170;27;20074;-89
2023/06/12 05:17:37;;;;;;;7.10;3.55;;;15.50;99.90;;;;;;5135101;27;20046;-88
2023/06/12 05:20:08;;;;;;;6.60;3.47;;;15.50;99.90;;;;;;5117583;27;20043;-88
2023/06/12 05:22:36;;;;;;;8.75;3.53;;;15.60;99.90;;;;;;5118257;27;20043;-88
2023/06/12 05:25:03;;;;;;;10.48;3.85;;;15.70;99.90;;;;;;5117342;27;20038;-89
2023/06/12 05:27:30;;;;;;;10.48;3.95;;;15.70;99.90;;;;;;5134658;27;20039;-89
2023/06/12 05:30:00;;;;;;;6.35;3.50;;;15.70;99.90;;;;;;5118354;27;20050;-88
2023/06/12 05:32:26;;;;;;;8.32;4.28;;;15.80;99.90;;;;;;5126267;28;20480;-89
2023/06/12 05:34:53;;;;;;;8.65;4.03;;;15.90;99.90;;;;;;5097084;28;20035;-89
2023/06/12 05:37:20;;;;;;;8.02;3.80;;;15.90;99.90;;;;;;5090569;28;20054;-89
2023/06/12 05:39:46;;;;;;;6.15;3.60;;;16.00;99.90;;;;;;5097129;28;20050;-88
2023/06/12 05:42:13;;;;;;;8.13;3.97;;;16.00;99.90;;;;;;5097486;28;20039;-89
2023/06/12 05:44:40;;;;;;;9.13;3.88;;;16.10;99.90;;;;;;5108472;27;20476;-89
2023/06/12 05:47:08;;;;;;;7.72;3.70;;;16.10;99.90;;;;;;5116798;27;20092;-89
2023/06/12 05:49:34;;;;;;;6.75;3.78;;;16.30;99.90;;;;;;5117602;27;20043;-89
2023/06/12 05:52:04;;;;;;;11.27;3.80;;;16.30;99.90;;;;;;5115570;28;20042;-88
2023/06/12 05:54:30;;;;;;;8.05;3.90;;;16.30;99.90;;;;;;5093292;28;20042;-87
2023/06/12 05:56:57;;;;;;;10.90;3.90;;;16.40;99.90;;;;;;5100171;28;20035;-89
2023/06/12 05:59:24;;;;;;;13.35;3.88;;;16.40;99.90;;;;;;5117184;28;20080;-89
2023/06/12 06:01:51;;;;;;;7.57;3.55;;;16.50;99.90;;;;;;5117106;28;20403;-89
2023/06/12 06:04:18;;;;;;;13.00;4.20;;;16.50;99.90;;;;;;5117531;28;20045;-89
2023/06/12 06:06:46;;;;;;;6.38;4.00;;;16.60;99.90;;;;;;5117461;28;20043;-89
2023/06/12 06:09:15;;;;;;;8.95;3.92;;;16.70;99.90;;;;;;5100554;28;20035;-89
2023/06/12 06:11:41;;;;;;;9.30;3.90;;;16.80;99.90;;;;;;5151543;28;20047;-89
2023/06/12 06:14:08;;;;;;;6.90;4.03;;;16.90;99.90;;;;;;5116984;28;20040;-88
2023/06/12 06:16:38;;;;;;;13.88;3.95;;;16.90;99.90;;;;;;5117319;28;20039;-89
2023/06/12 06:19:05;;;;;;;8.57;3.92;;;17.10;99.90;;;;;;5117158;28;20095;-88
2023/06/12 06:21:33;;;;;;;9.88;4.30;;;17.20;99.90;;;;;;5100720;28;20380;-89
2023/06/12 06:24:00;;;;;;;10.93;4.10;;;17.30;99.90;;;;;;5095009;28;20049;-88
2023/06/12 06:26:27;;;;;;;7.93;4.00;;;17.30;99.90;;;;;;5108410;27;20031;-88
2023/06/12 06:28:54;;;;;;;7.47;4.10;;;17.40;99.90;;;;;;5107111;28;20040;-88
2023/06/12 06:31:22;;;;;;;7.63;3.53;;;17.50;99.90;;;;;;5112174;27;20062;-87
2023/06/12 06:33:48;;;;;;;11.00;3.92;;;17.60;99.90;;;;;;5101006;27;20039;-88
2023/06/12 06:36:15;;;;;;;8.75;3.80;;;17.70;99.90;;;;;;5100345;28;20042;-89
2023/06/12 06:38:42;;;;;;;7.55;3.88;;;17.80;99.90;;;;;;5116540;27;20034;-88
2023/06/12 06:41:08;;;;;;;12.40;4.35;;;17.90;99.90;;;;;;5120273;27;20043;-89
2023/06/12 06:43:35;;;;;;;9.35;4.13;;;18.10;99.90;;;;;;5104097;27;20039;-89
2023/06/12 06:46:04;;;;;;;13.10;4.03;;;18.20;99.90;;;;;;5103882;27;20122;-89
2023/06/12 06:48:31;;;;;;;11.60;4.68;;;18.30;99.90;;;;;;5134354;27;20096;-90
2023/06/12 06:50:58;;;;;;;8.25;4.10;;;18.40;99.90;;;;;;5130640;27;20447;-89
2023/06/12 06:53:25;;;;;;;9.23;4.10;;;18.60;99.90;;;;;;5108766;27;20073;-89
2023/06/12 06:55:51;;;;;;;13.30;4.10;;;18.60;99.90;;;;;;5108498;27;20046;-89
2023/06/12 06:58:18;;;;;;;8.13;3.80;;;18.80;99.90;;;;;;5093281;27;20066;-88
2023/06/12 07:00:45;;;;;;;9.45;4.18;;;18.90;99.90;;;;;;5119704;27;20031;-86
2023/06/12 07:03:12;;;;;;;9.32;4.10;;;19.00;99.90;;;;;;5103409;27;20054;-87
2023/06/12 07:05:39;;;;;;;11.57;4.00;;;19.10;99.90;;;;;;5119854;27;20039;-86
2023/06/12 07:08:07;;;;;;;9.85;4.47;;;19.10;99.90;;;;;;5102875;27;20076;-86
2023/06/12 07:10:34;;;;;;;7.97;4.10;;;19.20;99.90;;;;;;5136507;27;20483;-85
2023/06/12 07:13:00;;;;;;;14.05;4.72;;;19.30;99.90;;;;;;5102418;27;20035;-85
2023/06/12 07:15:27;;;;;;;7.00;4.00;;;19.40;99.90;;;;;;5102889;27;20122;-86
2023/06/12 07:17:54;;;;;;;7.65;4.13;;;19.40;99.90;;;;;;5102592;27;20570;-86
2023/06/12 07:20:21;;;;;;;7.18;4.00;;;19.50;99.90;;;;;;5135756;27;20043;-86
2023/06/12 07:22:47;;;;;;;9.27;4.25;;;19.50;99.90;;;;;;5136142;27;20039;-85
2023/06/12 07:25:14;;;;;;;9.07;3.70;;;19.50;99.90;;;;;;5118836;27;20050;-86
2023/06/12 07:27:41;;;;;;;10.05;4.30;;;19.60;99.90;;;;;;5102307;27;20039;-86
2023/06/12 07:30:09;;;;;;;7.80;4.15;;;19.60;99.90;;;;;;5132115;27;20473;-85
2023/06/12 07:32:36;;;;;;;8.25;4.20;;;19.70;99.90;;;;;;5130512;27;20099;-86
2023/06/12 07:35:03;;;;;;;7.78;4.13;;;19.80;99.90;;;;;;5135165;27;20421;-85
2023/06/12 07:37:34;;;;;;;6.80;3.95;;;19.90;99.90;;;;;;5118163;27;20483;-85
2023/06/12 07:40:05;;;;;;;8.50;4.15;;;20.00;99.90;;;;;;5112823;28;20043;-86
2023/06/12 07:42:33;;;;;;;9.85;4.22;;;20.10;99.90;;;;;;5115594;28;20035;-86
2023/06/12 07:44:59;;;;;;;7.35;4.00;;;20.30;99.90;;;;;;5115510;28;20130;-86
2023/06/12 07:47:26;;;;;;;8.68;3.90;;;20.40;99.90;;;;;;5131631;27;20134;-86
2023/06/12 07:49:53;;;;;;;11.07;4.00;;;20.50;99.90;;;;;;5087084;28;20044;-86
2023/06/12 07:52:20;;;;;;;9.90;4.07;;;20.70;99.90;;;;;;5097875;28;20036;-85
2023/06/12 07:54:48;;;;;;;8.18;3.95;;;20.90;99.90;;;;;;5081650;28;20040;-86
2023/06/12 07:57:15;;;;;;;7.97;4.30;;;21.00;99.90;;;;;;5097886;28;20093;-85
2023/06/12 07:59:44;;;;;;;10.75;4.35;;;21.20;99.90;;;;;;5114728;28;20048;-85
2023/06/12 08:02:11;;;;;;;7.05;4.20;;;21.30;99.90;;;;;;5102870;28;20867;-85
2023/06/12 08:04:40;;;;;;;8.85;4.40;;;21.40;99.90;;;;;;5083145;28;20035;-85
2023/06/12 08:07:11;;;;;;;7.25;4.45;;;21.60;99.90;;;;;;5115789;27;20048;-85
2023/06/12 08:09:40;;;;;;;7.25;4.10;;;21.60;99.90;;;;;;5134770;27;20532;-85
2023/06/12 08:12:09;;;;;;;7.38;4.57;;;21.60;99.90;;;;;;5118031;27;20031;-86
2023/06/12 08:14:36;;;;;;;8.00;4.15;;;21.70;99.90;;;;;;5130226;27;20465;-86
2023/06/12 08:17:03;;;;;;;10.35;4.22;;;21.90;99.90;;;;;;5117964;27;20134;-85
2023/06/12 08:19:32;;;;;;;11.13;4.65;;;22.10;99.90;;;;;;5117892;27;20039;-85
2023/06/12 08:21:59;;;;;;;8.38;4.22;;;22.20;99.90;;;;;;5118101;27;20043;-83
2023/06/12 08:24:29;;;;;;;10.30;4.05;;;22.30;99.90;;;;;;5134388;27;20039;-85
2023/06/12 08:27:00;;;;;;;8.57;4.40;;;22.40;99.90;;;;;;5135282;27;20042;-85
2023/06/12 08:29:27;;;;;;;9.60;4.43;;;22.50;99.90;;;;;;5117696;27;20086;-85
2023/06/12 08:31:56;;;;;;;10.52;4.75;;;22.60;99.90;;;;;;5121392;28;20032;-87
2023/06/12 08:34:24;;;;;;;7.20;4.22;;;22.60;99.90;;;;;;5113723;28;20039;-85
2023/06/12 08:36:54;;;;;;;8.30;4.35;;;22.60;99.90;;;;;;5098563;28;20132;-86
2023/06/12 08:39:21;;;;;;;8.05;4.43;;;22.80;99.90;;;;;;5097125;28;20047;-85
2023/06/12 08:42:00;;;;;;;12.63;4.50;;;22.90;99.90;;;;;;5097559;28;20044;-86
2023/06/12 08:44:28;;;;;;;7.68;4.60;;;23.00;99.90;;;;;;5113500;28;20488;-85
2023/06/12 08:46:56;;;;;;;9.35;4.55;;;23.20;99.90;;;;;;5096662;28;20114;-85
2023/06/12 08:49:25;;;;;;;7.85;4.43;;;23.30;99.90;;;;;;5113188;28;20132;-85
2023/06/12 08:51:52;;;;;;;8.30;4.43;;;23.40;99.90;;;;;;5114094;28;20046;-86
2023/06/12 08:54:19;;;;;;;7.00;4.35;;;23.50;99.90;;;;;;5096702;28;20039;-85
2023/06/12 08:56:46;;;;;;;9.30;4.10;;;23.70;99.90;;;;;;5113880;28;20812;-85
2023/06/12 08:59:14;;;;;;;8.75;4.72;;;23.90;99.90;;;;;;5113435;27;20495;-85
2023/06/12 09:01:42;;;;;;;14.15;4.95;;;24.00;99.90;;;;;;5117033;27;20123;-86
2023/06/12 09:04:37;;;;;;;7.78;4.60;;;24.00;99.90;;;;;;5117178;27;20759;-85
2023/06/12 09:07:04;;;;;;;7.65;4.47;;;24.20;99.90;;;;;;5134713;27;20031;-85
2023/06/12 09:09:41;;;;;;;11.13;4.53;;;24.40;99.90;;;;;;5116884;27;20054;-86
2023/06/12 09:12:13;;;;;;;9.05;4.55;;;24.50;99.90;;;;;;5145789;27;20046;-86
2023/06/12 09:14:45;;;;;;;7.80;4.32;;;24.60;99.90;;;;;;5134429;27;20043;-85
2023/06/12 09:17:12;;;;;;;12.43;6.53;;;24.80;99.90;;;;;;5133117;27;20086;-85
2023/06/12 09:19:44;;;;;;;10.60;4.53;;;24.90;99.90;;;;;;5133942;27;20104;-86
2023/06/12 09:22:11;;;;;;;9.02;4.65;;;25.00;99.90;;;;;;5120996;27;20045;-87
2023/06/12 09:24:40;;;;;;;11.18;4.97;;;25.00;99.90;;;;;;5116935;27;20100;-87
2023/06/12 09:27:07;;;;;;;10.65;4.57;;;25.00;99.90;;;;;;5117023;27;20142;-86
2023/06/12 09:29:36;;;;;;;8.23;4.65;;;25.10;99.90;;;;;;5133504;27;20049;-86
2023/06/12 09:32:06;;;;;;;8.65;4.40;;;25.10;99.90;;;;;;5116863;27;20035;-86
2023/06/12 09:34:36;;;;;;;9.48;4.68;;;25.20;99.90;;;;;;5116404;27;20108;-86
2023/06/12 09:37:08;;;;;;;9.80;4.20;;;25.30;99.90;;;;;;5133332;27;20547;-86
2023/06/12 09:39:35;;;;;;;7.00;4.40;;;25.60;99.90;;;;;;5132868;27;20043;-87
2023/06/12 09:42:02;;;;;;;10.38;4.43;;;25.70;99.90;;;;;;5117313;27;20039;-87
2023/06/12 09:44:30;;;;;;;8.80;4.32;;;25.90;99.90;;;;;;5149040;27;20043;-87
2023/06/12 09:47:05;;;;;;;10.15;4.63;;;26.00;99.90;;;;;;5133287;27;20149;-86
2023/06/12 09:49:33;;;;;;;11.00;4.20;;;26.10;99.00;;;;;;5133565;27;20050;-87
2023/06/12 09:52:05;;;;;;;7.80;4.80;;;26.20;99.90;;;;;;5116726;27;20034;-87
2023/06/12 09:54:33;;;;;;;12.50;4.47;;;26.30;99.70;;;;;;5124181;28;20479;-87
2023/06/12 09:57:06;;;;;;;7.10;4.35;;;26.50;99.80;;;;;;5116220;28;20039;-85
2023/06/12 09:59:33;;;;;;;7.32;3.97;;;26.70;99.40;;;;;;5147163;28;20384;-86
2023/06/12 10:02:05;;;;;;;7.32;4.30;;;26.80;99.50;;;;;;5129950;28;20036;-87
2023/06/12 10:04:45;;;;;;;7.13;3.90;;;26.90;99.30;;;;;;5112799;28;20088;-86
2023/06/12 10:07:20;;;;;;;9.48;3.88;;;27.00;97.70;;;;;;5112916;28;20483;-87
2023/06/12 10:09:48;;;;;;;10.27;3.95;;;27.00;98.70;;;;;;5113156;28;20086;-86
2023/06/12 10:12:17;;;;;;;7.00;4.70;;;27.10;98.70;;;;;;5096696;28;20039;-86
2023/06/12 10:14:45;;;;;;;7.47;4.57;;;27.20;98.60;;;;;;5096294;28;20039;-87
2023/06/12 10:17:12;;;;;;;8.13;4.63;;;27.30;98.10;;;;;;5096488;28;20039;-88
2023/06/12 10:19:40;;;;;;;8.55;4.57;;;27.40;97.90;;;;;;5087863;28;20079;-86
2023/06/12 10:22:07;;;;;;;11.95;4.30;;;27.60;97.80;;;;;;5097969;28;20503;-86
2023/06/12 10:24:35;;;;;;;8.65;4.47;;;27.70;97.50;;;;;;5116068;28;20172;-86
2023/06/12 10:27:03;;;;;;;6.47;4.38;;;27.70;97.30;;;;;;5099186;28;20047;-85
2023/06/12 10:29:32;;;;;;;8.77;4.30;;;27.80;97.20;;;;;;5122637;28;20466;-85
2023/06/12 10:32:07;;;;;;;6.78;4.22;;;27.90;97.00;;;;;;5120664;28;20043;-85
2023/06/12 10:34:35;;;;;;;5.38;4.05;;;28.00;96.30;;;;;;5094745;28;20047;-86
2023/06/12 10:37:25;;;;;;;7.13;3.70;;;28.10;96.80;;;;;;5112165;28;20043;-86
2023/06/12 10:40:12;;;;;;;9.20;4.22;;;28.10;96.70;;;;;;5112686;28;20092;-88
2023/06/12 10:42:54;;;;;;;6.30;4.40;;;28.10;94.60;;;;;;5113123;28;20035;-87
2023/06/12 10:45:26;;;;;;;9.30;4.80;;;28.20;96.00;;;;;;5112341;28;20075;-86
2023/06/12 10:48:08;;;;;;;8.32;4.30;;;28.30;96.10;;;;;;5113630;28;20048;-87
2023/06/12 10:50:44;;;;;;;6.47;4.40;;;28.40;95.30;;;;;;5132990;28;20066;-88
2023/06/12 10:53:13;;;;;;;10.52;4.68;;;28.50;95.70;;;;;;5132856;28;20447;-88
2023/06/12 10:55:41;;;;;;;9.52;4.75;;;28.50;95.60;;;;;;5149505;28;20092;-87
2023/06/12 10:58:12;;;;;;;13.98;4.70;;;28.50;95.60;;;;;;5116202;28;20042;-88
2023/06/12 11:00:47;;;;;;;11.30;4.72;;;28.60;95.10;;;;;;5133474;28;20039;-88
2023/06/12 11:03:17;;;;;;;8.15;4.43;;;28.70;94.70;;;;;;5148941;28;20046;-83
2023/06/12 11:05:48;;;;;;;9.77;4.55;;;28.80;95.30;;;;;;5122620;28;20104;-84
2023/06/12 11:08:15;;;;;;;6.93;4.35;;;28.80;95.50;;;;;;5108372;28;20035;-83
2023/06/12 11:10:43;;;;;;;8.50;4.13;;;28.90;95.10;;;;;;5111239;28;20491;-83
2023/06/12 11:13:10;;;;;;;6.90;4.30;;;29.00;94.50;;;;;;5116220;28;20032;-83
2023/06/12 11:15:45;;;;;;;8.38;4.28;;;29.10;94.50;;;;;;5120075;27;20091;-84
2023/06/12 11:18:13;;;;;;;7.38;4.30;;;29.10;94.20;;;;;;5118755;27;20100;-84
2023/06/12 11:20:41;;;;;;;7.78;4.47;;;29.10;94.40;;;;;;5117930;27;20078;-82
2023/06/12 11:23:08;;;;;;;9.02;4.60;;;29.20;94.00;;;;;;5099964;28;20043;-82
2023/06/12 11:25:42;;;;;;;10.68;4.30;;;29.20;93.80;;;;;;5104595;28;20517;-82
2023/06/12 11:28:09;;;;;;;;;;;29.30;93.70;;;;;;5132680;28;20043;-82
2023/06/12 11:30:36;;;;;;;8.05;4.47;;;29.40;92.40;;;;;;5114203;28;20038;-82
2023/06/12 11:33:08;;;;;;;8.57;4.65;;;29.40;93.70;;;;;;5109271;28;20118;-83
2023/06/12 11:35:45;;;;;;;7.18;4.35;;;29.10;93.10;;;;;;5118032;27;20046;-82
2023/06/12 11:38:14;;;;;;;7.00;4.63;;;29.10;92.40;;;;;;5152123;27;20511;-82
2023/06/12 11:40:47;;;;;;;8.27;5.15;;;29.10;93.00;;;;;;5118064;27;20518;-82
2023/06/12 11:43:16;;;;;;;8.93;4.55;;;29.20;92.80;;;;;;5135072;27;20499;-83
2023/06/12 11:45:43;;;;;;;8.73;4.95;;;29.10;92.80;;;;;;5135010;27;20047;-82
2023/06/12 11:48:16;;;;;;;7.47;4.85;;;29.10;92.80;;;;;;5117833;27;20050;-82
2023/06/12 11:50:52;;;;;;;6.05;4.75;;;28.90;91.80;;;;;;5118612;27;20036;-82
2023/06/12 11:53:20;;;;;;;6.72;4.72;;;28.90;92.30;;;;;;5151667;27;20047;-82
2023/06/12 11:56:00;;;;;;;7.45;4.50;;;28.90;92.50;;;;;;5134611;27;20555;-82
2023/06/12 11:58:39;;;;;;;7.47;4.63;;;28.90;92.90;;;;;;5151931;27;20129;-82
2023/06/12 12:01:15;;;;;;;8.52;4.70;;;28.70;92.10;;;;;;5134498;27;20035;-82
2023/06/12 12:03:46;;;;;;;8.02;4.85;;;28.70;92.00;;;;;;5125252;28;20084;-82
2023/06/12 12:06:17;;;;;;;7.55;5.75;;;28.60;92.20;;;;;;5081964;28;20071;-82
2023/06/12 12:08:44;;;;;;;9.13;4.57;;;28.50;91.70;;;;;;5113897;28;20035;-82
2023/06/12 12:11:20;;;;;;;7.78;4.60;;;28.40;92.10;;;;;;5123315;27;20445;-82
2023/06/12 12:14:03;;;;;;;9.07;4.68;;;28.30;91.60;;;;;;5139811;27;20092;-83
2023/06/12 12:16:38;;;;;;;8.38;4.93;;;28.40;92.20;;;;;;5122872;27;20030;-82
2023/06/12 12:19:27;;;;;;;14.15;4.90;;;28.70;91.10;;;;;;5126266;27;20031;-82
2023/06/12 12:21:54;;;;;;;9.25;4.95;;;28.90;91.50;;;;;;5133440;27;20039;-82
2023/06/12 12:24:21;;;;;;;8.10;5.30;;;29.10;91.50;;;;;;5117077;27;20103;-82
2023/06/12 12:26:50;;;;;;;8.35;5.38;;;29.10;91.10;;;;;;5099698;27;20043;-82
2023/06/12 12:29:18;;;;;;;8.77;5.22;;;29.00;90.80;;;;;;5117698;28;20104;-82
2023/06/12 12:31:45;;;;;;;6.80;4.97;;;29.10;90.70;;;;;;5113230;28;20137;-83
2023/06/12 12:34:12;;;;;;;8.52;5.28;;;29.10;90.70;;;;;;5096915;28;20078;-82
2023/06/12 12:36:40;;;;;;;7.65;5.20;;;29.10;90.70;;;;;;5130214;28;20084;-85
2023/06/12 12:39:07;;;;;;;6.97;4.93;;;29.00;90.50;;;;;;5114226;28;20043;-84
2023/06/12 12:41:35;;;;;;;6.65;5.00;;;28.80;90.20;;;;;;5099272;27;20035;-84
2023/06/12 12:44:02;;;;;;;16.45;5.40;;;28.60;90.60;;;;;;5133613;27;20099;-83
2023/06/12 12:46:29;;;;;;;9.65;5.60;;;28.50;90.80;;;;;;5100496;27;20043;-84
2023/06/12 12:48:57;;;;;;;10.15;5.75;;;28.50;90.30;;;;;;5133848;27;20399;-85
2023/06/12 12:51:23;;;;;;;6.28;4.97;;;28.40;90.60;;;;;;5116913;27;20448;-84
2023/06/12 12:53:51;;;;;;;6.30;5.10;;;28.30;90.80;;;;;;5116507;27;20031;-85
2023/06/12 12:56:18;;;;;;;9.50;5.45;;;28.30;90.70;;;;;;5116790;27;20384;-85